Arsenal, Arkansas
Current Conditions -  °F | °C
As of 5:53 AM on Monday 26 Jan 2015 (Local Time) from KPBF Reporting Station
Clear Clear  
Wind Chill: 36°   Ceiling: Unl
Heat Index: 36°   Visibility: 10mi
Dew Point: 30°   Wind: 3mph
Humidity: 79%   Direction: 280°W
Pressure: 30.12"   Gusts: NA
Location:  34.193°N, 91.9403°W
Report Text: KPBF 261153Z AUTO 28003KT 10SM CLR 02/M01 A3012 RMK AO2 SLP199 T00221011 10078 20017 53009
Loading
Personal Weather Stations






























Interactive Weather Map New forecast layout! Learn more

10-Day Weather Forecast

Advertisements
Track Severe Weather on mobile